Hlavní strana
METAR-TAF:

METAR-TAF

Letiště :

Orsk, Rusko

zeměpisná šířka: 51-04-18N, zeměpisná délka: 058-35-48E, výška: 277 m

Aktuální stav počasí

Zpráva byla vytvořena před 23 minutami, v 09:00 UTC
Bezvětří
Teplota -2°C
Vlhkost vzduchu 93%
Tlak 1019 hPa
Viditelnost 10 km a více
Žádná oblačnost pod 1500 m, nevyskytují se cumulonimby.

METAR: UWOR 110900Z 00000MPS CAVOK M02/M03 Q1019 R25/150055 NOSIG RMK QFE740/0987

Čas: 14:23 (09:23 UTC)

Předpověď počasí

Zpráva byla vytvořena před 1 hodinou a 28 minutami, v 07:55 UTC
Předpověď platná od 11 v 09 UTC do 11 v 18 UTC
Jihojihozápadní vítr 6 kt s nárazy do 16 kt
Viditelnost: 3100 m
Oblačno až skoro zataženo ve výšce 1100 ft
kouřmo
Dočasný
od 11 v 09 UTC do 11 v 18 UTC
vítr z různých směrů 2 kt
Viditelnost: 0300 m
ve výšce 200 ft
mrznoucí mrholení, mrznoucí mlha

TAF: UWOR 110755Z 1109/1118 20003G08MPS 3100 BR BKN011 TXM04/1110Z TNM06/1117Z TEMPO 1109/1118 VRB01MPS 0300 FZDZ FZFG VV002

Stav a předpovědi počasí z více než 4 000 letišť (zprávy METAR a TAF).

Červené a žluté tečky na mapě představují dostupné meteorologické stanice.

Když kurzor umístíte na tečku, zobrazí se název stanice.

Pak kliknutím zobrazíte stav a předpověď počasí.

Chcete-li změnit mapu, kliknutím na zelené tlačítko se znaménkem +mapu přiblížíte, kliknutím na zelené tlačítko se znaménkem – mapu oddálíte a kliknutím na zelené šipky přejdete na sousední mapy.


METAR-TAF: